createdAt,value
2022-08-07T00:02:36.670Z,101917.13
2022-08-07T00:07:27.388Z,101915.78
2022-08-07T00:12:32.666Z,101920.13
2022-08-07T00:17:37.278Z,101917.94
2022-08-07T00:22:42.937Z,101922.53
2022-08-07T00:27:56.733Z,101920.84
2022-08-07T00:33:02.762Z,101912.56
2022-08-07T00:38:06.384Z,101917.31
2022-08-07T00:43:59.450Z,101915.94
2022-08-07T00:48:35.897Z,101910.84
2022-08-07T00:53:50.550Z,101909.81
2022-08-07T00:59:00.311Z,101906.78
2022-08-07T01:04:06.390Z,101906.00
2022-08-07T01:10:04.217Z,101912.66
2022-08-07T01:14:45.051Z,101927.00
2022-08-07T01:19:54.437Z,101906.56
2022-08-07T01:25:00.519Z,101917.72
2022-08-07T01:30:07.454Z,101918.41
2022-08-07T01:35:17.170Z,101917.38
2022-08-07T01:40:24.223Z,101915.28
2022-08-07T01:45:37.285Z,101913.59
2022-08-07T01:50:55.586Z,101908.94
2022-08-07T01:56:05.273Z,101908.97
2022-08-07T02:01:25.455Z,101912.59
2022-08-07T02:06:37.059Z,101911.81
2022-08-07T02:12:04.062Z,101904.75
2022-08-07T02:17:24.741Z,101910.75
2022-08-07T02:22:32.507Z,101891.75
2022-08-07T02:27:41.186Z,101894.31
2022-08-07T02:33:01.069Z,101894.53
2022-08-07T02:38:09.996Z,101891.56
2022-08-07T02:43:17.524Z,101886.75
2022-08-07T02:48:22.015Z,101877.94
2022-08-07T02:53:29.091Z,101882.41
2022-08-07T02:58:35.594Z,101882.84
2022-08-07T03:03:50.192Z,101877.94
2022-08-07T03:09:02.063Z,101872.28
2022-08-07T03:14:07.148Z,101890.41
2022-08-07T03:19:11.364Z,101890.13
2022-08-07T03:24:26.030Z,101889.66
2022-08-07T03:29:39.226Z,101897.56
2022-08-07T03:35:16.660Z,101893.09
2022-08-07T03:40:17.035Z,101888.84
2022-08-07T03:45:30.996Z,101895.22
2022-08-07T03:50:56.146Z,101889.66
2022-08-07T03:56:04.435Z,101893.19
2022-08-07T04:01:15.274Z,101892.66
2022-08-07T04:06:37.534Z,101886.38
2022-08-07T04:12:27.667Z,101885.41
2022-08-07T04:17:20.583Z,101887.31
2022-08-07T04:22:28.941Z,101890.09
2022-08-07T04:27:43.970Z,101886.25
2022-08-07T04:32:58.441Z,101887.56
2022-08-07T04:38:08.262Z,101895.84
2022-08-07T04:43:16.329Z,101900.31
2022-08-07T04:48:31.764Z,101895.81
2022-08-07T04:54:06.422Z,101895.78
2022-08-07T05:00:08.059Z,101901.50
2022-08-07T05:04:47.099Z,101887.78
2022-08-07T05:09:59.111Z,101896.25
2022-08-07T05:15:23.058Z,101891.00
2022-08-07T05:20:36.263Z,101894.25
2022-08-07T05:26:10.738Z,101889.91
2022-08-07T05:31:07.915Z,101896.28
2022-08-07T05:36:22.498Z,101892.66
2022-08-07T05:42:02.556Z,101899.50
2022-08-07T05:47:18.725Z,101899.34
2022-08-07T05:52:32.336Z,101899.00
2022-08-07T05:57:42.285Z,101905.97
2022-08-07T06:02:50.213Z,101898.31
2022-08-07T06:08:29.320Z,101899.94
2022-08-07T06:14:12.338Z,101905.19
2022-08-07T06:18:51.462Z,101907.72
2022-08-07T06:24:45.742Z,101908.03
2022-08-07T06:29:28.109Z,101911.50
2022-08-07T06:34:33.392Z,101906.72
2022-08-07T06:40:17.253Z,101898.09
2022-08-07T06:45:05.842Z,101906.31
2022-08-07T06:50:15.664Z,101895.19
2022-08-07T06:55:53.803Z,101899.16
2022-08-07T07:00:53.005Z,101903.25
2022-08-07T07:06:05.156Z,101892.31
2022-08-07T07:11:13.570Z,101894.94
2022-08-07T07:16:39.017Z,101882.94
2022-08-07T07:22:04.959Z,101885.97
2022-08-07T07:27:18.307Z,101882.69
2022-08-07T07:32:23.074Z,101869.00
2022-08-07T07:37:49.748Z,101866.44
2022-08-07T07:42:58.759Z,101865.09
2022-08-07T07:48:34.821Z,101863.31
2022-08-07T07:53:51.543Z,101859.91
2022-08-07T07:58:57.203Z,101858.88
2022-08-07T08:04:09.665Z,101850.16
2022-08-07T08:09:17.917Z,101849.50
2022-08-07T08:14:26.301Z,101843.94
2022-08-07T08:20:19.184Z,101845.94
2022-08-07T08:25:24.746Z,101826.13
2022-08-07T08:30:42.879Z,101830.81
2022-08-07T08:35:55.832Z,101828.97
2022-08-07T08:41:03.987Z,101822.06
2022-08-07T08:46:15.118Z,101817.72
2022-08-07T08:51:49.580Z,101817.03
2022-08-07T08:56:49.794Z,101817.81
2022-08-07T09:02:14.279Z,101813.16
2022-08-07T09:07:25.794Z,101817.00
2022-08-07T09:12:53.265Z,101809.94
2022-08-07T09:18:22.619Z,101802.25
2022-08-07T09:24:33.073Z,101798.41
2022-08-07T09:30:01.264Z,101790.59
2022-08-07T09:34:54.030Z,101794.53
2022-08-07T09:40:04.997Z,101794.66
2022-08-07T09:47:24.876Z,101783.59
2022-08-07T09:50:51.405Z,101772.72
2022-08-07T09:56:37.651Z,101765.75
2022-08-07T10:01:57.712Z,101765.88
2022-08-07T10:07:24.668Z,101764.97
2022-08-07T10:12:45.877Z,101751.63
2022-08-07T10:18:26.499Z,101746.53
2022-08-07T10:24:06.776Z,101741.91
2022-08-07T10:29:25.754Z,101739.06
2022-08-07T10:34:49.872Z,101743.31
2022-08-07T10:40:09.131Z,101746.56
2022-08-07T10:45:57.794Z,101734.69
2022-08-07T10:50:50.387Z,101717.22
2022-08-07T10:56:04.147Z,101710.44
2022-08-07T11:01:35.147Z,101708.72
2022-08-07T11:07:02.427Z,101702.63
2022-08-07T11:12:12.911Z,101696.50
2022-08-07T11:17:23.280Z,101685.66
2022-08-07T11:22:52.564Z,101676.50
2022-08-07T11:28:04.524Z,101676.41
2022-08-07T11:33:16.180Z,101667.28
2022-08-07T11:38:28.321Z,101655.53
2022-08-07T11:43:54.228Z,101659.88
2022-08-07T11:49:51.130Z,101650.44
2022-08-07T11:55:00.019Z,101647.94
2022-08-07T12:00:19.351Z,101637.53
2022-08-07T12:05:41.791Z,101637.31
2022-08-07T12:11:08.168Z,101637.34
2022-08-07T12:16:30.680Z,101637.31
2022-08-07T12:22:35.838Z,101627.44
2022-08-07T12:27:14.945Z,101615.88
2022-08-07T12:32:28.735Z,101621.97
2022-08-07T12:38:10.109Z,101597.81
2022-08-07T12:43:01.350Z,101611.69
2022-08-07T12:48:28.324Z,101609.19
2022-08-07T12:54:03.304Z,101625.63
2022-08-07T12:59:09.691Z,101603.97
2022-08-07T13:04:48.991Z,101603.50
2022-08-07T13:10:39.470Z,101598.78
2022-08-07T13:15:56.131Z,101601.31
2022-08-07T13:21:10.841Z,101588.94
2022-08-07T13:26:18.495Z,101594.50
2022-08-07T13:31:32.077Z,101582.06
2022-08-07T13:36:42.340Z,101580.63
2022-08-07T13:41:51.606Z,101575.25
2022-08-07T13:47:00.853Z,101561.69
2022-08-07T13:52:26.523Z,101559.56
2022-08-07T13:57:38.383Z,101558.22
2022-08-07T14:02:51.182Z,101568.53
2022-08-07T14:08:01.462Z,101555.78
2022-08-07T14:13:07.296Z,101542.56
2022-08-07T14:18:29.035Z,101536.94
2022-08-07T14:24:00.843Z,101545.16
2022-08-07T14:30:02.553Z,101528.53
2022-08-07T14:34:30.710Z,101529.06
2022-08-07T14:40:18.099Z,101530.25
2022-08-07T14:45:20.797Z,101513.91
2022-08-07T14:50:26.420Z,101512.66
2022-08-07T14:55:34.166Z,101507.09
2022-08-07T15:00:52.273Z,101506.84
2022-08-07T15:16:54.920Z,101501.84
2022-08-07T15:22:05.699Z,101508.56
2022-08-07T15:27:23.216Z,101504.75
2022-08-07T15:32:38.953Z,101506.09
2022-08-07T15:38:17.471Z,101502.44
2022-08-07T15:49:11.964Z,101478.59
2022-08-07T15:54:12.093Z,101491.69
2022-08-07T15:59:20.155Z,101489.41
2022-08-07T16:04:44.134Z,101471.88
2022-08-07T16:09:51.786Z,101483.09
2022-08-07T16:15:07.951Z,101487.06
2022-08-07T16:21:43.811Z,101480.34
2022-08-07T16:26:16.266Z,101486.72
2022-08-07T16:31:50.072Z,101482.81
2022-08-07T16:38:05.455Z,101469.28
2022-08-07T16:43:01.831Z,101468.88
2022-08-07T16:48:53.655Z,101465.31
2022-08-07T16:54:32.789Z,101475.97
2022-08-07T16:59:45.739Z,101472.03
2022-08-07T17:05:15.179Z,101471.38
2022-08-07T17:10:36.469Z,101474.94
2022-08-07T17:15:44.307Z,101477.63
2022-08-07T17:20:56.312Z,101461.75
2022-08-07T17:26:24.331Z,101462.00
2022-08-07T17:31:44.177Z,101458.38
2022-08-07T17:38:05.099Z,101456.25
2022-08-07T17:42:59.814Z,101457.91
2022-08-07T17:48:11.278Z,101467.63
2022-08-07T17:54:00.208Z,101461.63
2022-08-07T17:59:00.600Z,101459.66
2022-08-07T18:04:16.326Z,101452.56
2022-08-07T18:10:05.116Z,101457.94
2022-08-07T18:14:52.418Z,101458.31
2022-08-07T18:21:07.070Z,101465.09
2022-08-07T18:25:39.389Z,101470.25
2022-08-07T18:30:53.285Z,101487.69
2022-08-07T18:36:08.271Z,101483.44
2022-08-07T18:41:20.712Z,101489.47
2022-08-07T18:46:29.667Z,101495.66
2022-08-07T18:52:38.701Z,101504.66
2022-08-07T18:57:31.048Z,101501.75
2022-08-07T19:02:42.200Z,101502.13
2022-08-07T19:07:58.633Z,101509.75
2022-08-07T19:13:10.306Z,101522.16
2022-08-07T19:18:34.421Z,101521.44
2022-08-07T19:23:58.489Z,101532.78
2022-08-07T19:31:03.674Z,101544.94
2022-08-07T19:34:32.598Z,101552.00
2022-08-07T19:39:40.780Z,101546.13
2022-08-07T19:45:08.670Z,101555.28
2022-08-07T19:50:44.294Z,101564.75
2022-08-07T19:55:57.847Z,101566.13
2022-08-07T20:01:01.985Z,101565.41
2022-08-07T20:06:06.881Z,101568.81
2022-08-07T20:11:34.299Z,101565.88
2022-08-07T20:16:48.026Z,101573.41
2022-08-07T20:21:58.317Z,101574.13
2022-08-07T20:27:07.471Z,101565.72
2022-08-07T20:32:22.677Z,101567.69
2022-08-07T20:37:34.115Z,101567.75
2022-08-07T20:42:44.381Z,101567.88
2022-08-07T20:47:55.603Z,101570.94
2022-08-07T20:53:01.442Z,101572.81
2022-08-07T20:58:11.929Z,101578.63
2022-08-07T21:03:25.894Z,101583.41
2022-08-07T21:08:38.031Z,101577.47
2022-08-07T21:14:16.380Z,101573.75
2022-08-07T21:19:14.066Z,101577.34
2022-08-07T21:24:27.719Z,101574.91
2022-08-07T21:29:42.831Z,101577.84
2022-08-07T21:35:00.823Z,101583.34
2022-08-07T21:40:08.657Z,101586.34
2022-08-07T21:46:08.842Z,101581.22
2022-08-07T21:50:55.260Z,101585.84
2022-08-07T21:56:16.661Z,101589.47
2022-08-07T22:02:07.613Z,101590.72
2022-08-07T22:07:08.310Z,101595.91
2022-08-07T22:12:16.172Z,101602.16
2022-08-07T22:17:22.117Z,101607.91
2022-08-07T22:22:33.982Z,101601.44
2022-08-07T22:28:08.336Z,101606.56
2022-08-07T22:33:12.428Z,101608.78
2022-08-07T22:38:31.135Z,101605.34
2022-08-07T22:43:38.036Z,101614.44
2022-08-07T22:49:12.713Z,101621.44
2022-08-07T22:54:48.731Z,101620.78
2022-08-07T23:00:01.235Z,101620.09
2022-08-07T23:06:15.061Z,101630.03
2022-08-07T23:10:49.972Z,101625.09
2022-08-07T23:16:46.382Z,101619.59
2022-08-07T23:21:36.619Z,101617.63
2022-08-07T23:26:54.964Z,101615.09
2022-08-07T23:34:23.334Z,101615.53
2022-08-07T23:38:01.906Z,101624.72
2022-08-07T23:43:35.323Z,101607.75
2022-08-07T23:49:05.938Z,101609.03
2022-08-07T23:54:19.550Z,101620.19
